sensor_id;sensor_type;location;lat;lon;timestamp;temperature;humidity
66708;DHT22;53622;0.000;0.000;2022-12-16T00:01:27;21.50;48.70
66708;DHT22;53622;0.000;0.000;2022-12-16T00:03:57;21.40;48.70
66708;DHT22;53622;0.000;0.000;2022-12-16T00:06:29;21.40;48.70
66708;DHT22;53622;0.000;0.000;2022-12-16T00:09:00;21.40;48.70
66708;DHT22;53622;0.000;0.000;2022-12-16T00:11:29;21.40;48.70
66708;DHT22;53622;0.000;0.000;2022-12-16T00:13:59;21.40;48.70
66708;DHT22;53622;0.000;0.000;2022-12-16T00:16:30;21.40;48.60
66708;DHT22;53622;0.000;0.000;2022-12-16T00:18:59;21.30;48.60
66708;DHT22;53622;0.000;0.000;2022-12-16T00:21:28;21.30;48.70
66708;DHT22;53622;0.000;0.000;2022-12-16T00:23:58;21.30;48.60
66708;DHT22;53622;0.000;0.000;2022-12-16T00:26:27;21.30;48.60
66708;DHT22;53622;0.000;0.000;2022-12-16T00:28:58;21.30;48.60
66708;DHT22;53622;0.000;0.000;2022-12-16T00:31:27;21.30;48.60
66708;DHT22;53622;0.000;0.000;2022-12-16T00:33:58;21.30;48.60
66708;DHT22;53622;0.000;0.000;2022-12-16T00:36:27;21.20;48.50
66708;DHT22;53622;0.000;0.000;2022-12-16T00:38:56;21.20;48.50
66708;DHT22;53622;0.000;0.000;2022-12-16T00:41:26;21.20;48.50
66708;DHT22;53622;0.000;0.000;2022-12-16T00:43:55;21.20;48.50
66708;DHT22;53622;0.000;0.000;2022-12-16T00:46:24;21.20;48.40
66708;DHT22;53622;0.000;0.000;2022-12-16T00:48:53;21.20;48.40
66708;DHT22;53622;0.000;0.000;2022-12-16T00:51:24;21.20;48.50
66708;DHT22;53622;0.000;0.000;2022-12-16T00:53:53;21.20;48.40
66708;DHT22;53622;0.000;0.000;2022-12-16T00:56:23;21.20;48.40
66708;DHT22;53622;0.000;0.000;2022-12-16T00:58:52;21.10;48.40
66708;DHT22;53622;0.000;0.000;2022-12-16T01:01:21;21.10;48.40
66708;DHT22;53622;0.000;0.000;2022-12-16T01:03:50;21.10;48.40
66708;DHT22;53622;0.000;0.000;2022-12-16T01:06:21;21.10;48.40
66708;DHT22;53622;0.000;0.000;2022-12-16T01:08:52;21.10;48.40
66708;DHT22;53622;0.000;0.000;2022-12-16T01:11:21;21.10;48.40
66708;DHT22;53622;0.000;0.000;2022-12-16T01:13:50;21.10;48.40
66708;DHT22;53622;0.000;0.000;2022-12-16T01:16:21;21.00;48.30
66708;DHT22;53622;0.000;0.000;2022-12-16T01:18:51;21.00;48.30
66708;DHT22;53622;0.000;0.000;2022-12-16T01:21:22;21.00;48.30
66708;DHT22;53622;0.000;0.000;2022-12-16T01:23:52;21.00;48.30
66708;DHT22;53622;0.000;0.000;2022-12-16T01:26:22;21.00;48.30
66708;DHT22;53622;0.000;0.000;2022-12-16T01:28:51;21.00;48.30
66708;DHT22;53622;0.000;0.000;2022-12-16T01:31:22;21.00;48.30
66708;DHT22;53622;0.000;0.000;2022-12-16T01:33:51;21.00;48.30
66708;DHT22;53622;0.000;0.000;2022-12-16T01:36:21;21.00;48.30
66708;DHT22;53622;0.000;0.000;2022-12-16T01:38:52;20.90;48.20
66708;DHT22;53622;0.000;0.000;2022-12-16T01:41:21;21.00;48.20
66708;DHT22;53622;0.000;0.000;2022-12-16T01:43:51;21.00;48.30
66708;DHT22;53622;0.000;0.000;2022-12-16T01:46:22;20.90;48.20
66708;DHT22;53622;0.000;0.000;2022-12-16T01:48:57;20.90;48.20
66708;DHT22;53622;0.000;0.000;2022-12-16T01:51:32;20.90;48.20
66708;DHT22;53622;0.000;0.000;2022-12-16T01:54:07;20.90;48.20
66708;DHT22;53622;0.000;0.000;2022-12-16T01:56:41;20.90;48.30
66708;DHT22;53622;0.000;0.000;2022-12-16T01:59:13;20.90;48.20
66708;DHT22;53622;0.000;0.000;2022-12-16T02:01:43;20.90;48.20
66708;DHT22;53622;0.000;0.000;2022-12-16T02:04:13;20.90;48.20
66708;DHT22;53622;0.000;0.000;2022-12-16T02:06:42;20.90;48.20
66708;DHT22;53622;0.000;0.000;2022-12-16T02:09:13;20.80;48.20
66708;DHT22;53622;0.000;0.000;2022-12-16T02:12:06;20.80;48.20
66708;DHT22;53622;0.000;0.000;2022-12-16T02:14:55;20.80;48.10
66708;DHT22;53622;0.000;0.000;2022-12-16T02:17:33;20.80;48.20
66708;DHT22;53622;0.000;0.000;2022-12-16T02:23:15;20.80;48.20
66708;DHT22;53622;0.000;0.000;2022-12-16T02:26:09;20.80;48.30
66708;DHT22;53622;0.000;0.000;2022-12-16T02:29:10;20.70;48.20
66708;DHT22;53622;0.000;0.000;2022-12-16T02:31:47;20.80;48.30
66708;DHT22;53622;0.000;0.000;2022-12-16T02:34:26;20.70;48.20
66708;DHT22;53622;0.000;0.000;2022-12-16T02:37:08;20.70;48.20
66708;DHT22;53622;0.000;0.000;2022-12-16T02:39:44;20.70;48.30
66708;DHT22;53622;0.000;0.000;2022-12-16T02:42:20;20.70;48.20
66708;DHT22;53622;0.000;0.000;2022-12-16T02:44:59;20.70;48.20
66708;DHT22;53622;0.000;0.000;2022-12-16T02:47:30;20.70;48.20
66708;DHT22;53622;0.000;0.000;2022-12-16T02:50:00;20.70;48.20
66708;DHT22;53622;0.000;0.000;2022-12-16T02:52:31;20.70;48.20
66708;DHT22;53622;0.000;0.000;2022-12-16T02:55:04;20.60;48.20
66708;DHT22;53622;0.000;0.000;2022-12-16T02:57:54;20.60;48.20
66708;DHT22;53622;0.000;0.000;2022-12-16T03:00:31;20.60;48.20
66708;DHT22;53622;0.000;0.000;2022-12-16T03:03:07;20.60;48.30
66708;DHT22;53622;0.000;0.000;2022-12-16T03:05:43;20.60;48.30
66708;DHT22;53622;0.000;0.000;2022-12-16T03:08:18;20.60;48.20
66708;DHT22;53622;0.000;0.000;2022-12-16T03:10:50;20.60;48.30
66708;DHT22;53622;0.000;0.000;2022-12-16T03:13:22;20.60;48.30
66708;DHT22;53622;0.000;0.000;2022-12-16T03:15:52;20.60;48.20
66708;DHT22;53622;0.000;0.000;2022-12-16T03:18:24;20.50;48.20
66708;DHT22;53622;0.000;0.000;2022-12-16T03:20:58;20.50;48.20
66708;DHT22;53622;0.000;0.000;2022-12-16T03:23:30;20.50;48.30
66708;DHT22;53622;0.000;0.000;2022-12-16T03:26:06;20.50;48.30
66708;DHT22;53622;0.000;0.000;2022-12-16T03:28:42;20.50;48.30
66708;DHT22;53622;0.000;0.000;2022-12-16T03:31:18;20.50;48.30
66708;DHT22;53622;0.000;0.000;2022-12-16T03:33:58;20.50;48.30
66708;DHT22;53622;0.000;0.000;2022-12-16T03:36:32;20.50;48.30
66708;DHT22;53622;0.000;0.000;2022-12-16T03:39:03;20.50;48.30
66708;DHT22;53622;0.000;0.000;2022-12-16T03:41:35;20.50;48.30
66708;DHT22;53622;0.000;0.000;2022-12-16T03:44:04;20.40;48.20
66708;DHT22;53622;0.000;0.000;2022-12-16T03:46:35;20.40;48.30
66708;DHT22;53622;0.000;0.000;2022-12-16T03:49:06;20.40;48.30
66708;DHT22;53622;0.000;0.000;2022-12-16T03:51:36;20.40;48.30
66708;DHT22;53622;0.000;0.000;2022-12-16T03:54:05;20.40;48.30
66708;DHT22;53622;0.000;0.000;2022-12-16T03:56:34;20.40;48.20
66708;DHT22;53622;0.000;0.000;2022-12-16T03:59:03;20.40;48.30
66708;DHT22;53622;0.000;0.000;2022-12-16T04:01:33;20.40;48.30
66708;DHT22;53622;0.000;0.000;2022-12-16T04:04:05;20.40;48.30
66708;DHT22;53622;0.000;0.000;2022-12-16T04:06:35;20.30;48.30
66708;DHT22;53622;0.000;0.000;2022-12-16T04:09:04;20.40;48.30
66708;DHT22;53622;0.000;0.000;2022-12-16T04:11:33;20.40;48.30
66708;DHT22;53622;0.000;0.000;2022-12-16T04:14:20;20.30;48.30
66708;DHT22;53622;0.000;0.000;2022-12-16T04:17:11;20.30;48.30
66708;DHT22;53622;0.000;0.000;2022-12-16T04:19:59;20.30;48.40
66708;DHT22;53622;0.000;0.000;2022-12-16T04:22:46;20.30;48.40
66708;DHT22;53622;0.000;0.000;2022-12-16T04:25:34;20.30;48.40
66708;DHT22;53622;0.000;0.000;2022-12-16T04:28:04;20.30;48.50
66708;DHT22;53622;0.000;0.000;2022-12-16T04:30:33;20.20;48.40
66708;DHT22;53622;0.000;0.000;2022-12-16T04:33:04;20.20;48.40
66708;DHT22;53622;0.000;0.000;2022-12-16T04:35:52;20.20;48.40
66708;DHT22;53622;0.000;0.000;2022-12-16T04:38:39;20.20;48.40
66708;DHT22;53622;0.000;0.000;2022-12-16T04:41:26;20.20;48.40
66708;DHT22;53622;0.000;0.000;2022-12-16T04:44:13;20.20;48.40
66708;DHT22;53622;0.000;0.000;2022-12-16T04:47:00;20.20;48.40
66708;DHT22;53622;0.000;0.000;2022-12-16T04:49:46;20.20;48.50
66708;DHT22;53622;0.000;0.000;2022-12-16T04:52:34;20.20;48.50
66708;DHT22;53622;0.000;0.000;2022-12-16T04:55:20;20.20;48.50
66708;DHT22;53622;0.000;0.000;2022-12-16T04:58:07;20.20;48.50
66708;DHT22;53622;0.000;0.000;2022-12-16T05:00:54;20.10;48.50
66708;DHT22;53622;0.000;0.000;2022-12-16T05:03:41;20.10;48.50
66708;DHT22;53622;0.000;0.000;2022-12-16T05:06:27;20.10;48.50
66708;DHT22;53622;0.000;0.000;2022-12-16T05:09:15;20.10;48.50
66708;DHT22;53622;0.000;0.000;2022-12-16T05:12:02;20.10;48.50
66708;DHT22;53622;0.000;0.000;2022-12-16T05:14:49;20.10;48.50
66708;DHT22;53622;0.000;0.000;2022-12-16T05:17:32;20.00;48.50
66708;DHT22;53622;0.000;0.000;2022-12-16T05:20:19;20.10;48.50
66708;DHT22;53622;0.000;0.000;2022-12-16T05:23:05;20.10;48.60
66708;DHT22;53622;0.000;0.000;2022-12-16T05:25:53;20.00;48.50
66708;DHT22;53622;0.000;0.000;2022-12-16T05:28:40;20.00;48.50
66708;DHT22;53622;0.000;0.000;2022-12-16T05:31:27;20.00;48.60
66708;DHT22;53622;0.000;0.000;2022-12-16T05:34:14;20.00;48.50
66708;DHT22;53622;0.000;0.000;2022-12-16T05:37:00;20.00;48.60
66708;DHT22;53622;0.000;0.000;2022-12-16T05:39:47;20.00;48.50
66708;DHT22;53622;0.000;0.000;2022-12-16T05:42:35;20.00;48.50
66708;DHT22;53622;0.000;0.000;2022-12-16T05:45:22;20.00;48.90
66708;DHT22;53622;0.000;0.000;2022-12-16T05:48:08;20.00;48.80
66708;DHT22;53622;0.000;0.000;2022-12-16T05:50:55;20.00;48.80
66708;DHT22;53622;0.000;0.000;2022-12-16T05:53:42;20.00;48.60
66708;DHT22;53622;0.000;0.000;2022-12-16T05:56:37;20.00;48.50
66708;DHT22;53622;0.000;0.000;2022-12-16T05:59:25;20.00;49.30
66708;DHT22;53622;0.000;0.000;2022-12-16T06:02:11;20.00;49.20
66708;DHT22;53622;0.000;0.000;2022-12-16T06:04:59;20.00;49.60
66708;DHT22;53622;0.000;0.000;2022-12-16T06:07:50;20.00;49.90
66708;DHT22;53622;0.000;0.000;2022-12-16T06:10:37;20.00;50.10
66708;DHT22;53622;0.000;0.000;2022-12-16T06:13:23;20.00;50.30
66708;DHT22;53622;0.000;0.000;2022-12-16T06:16:12;20.00;50.30
66708;DHT22;53622;0.000;0.000;2022-12-16T06:18:58;20.00;50.20
66708;DHT22;53622;0.000;0.000;2022-12-16T06:21:45;20.00;50.20
66708;DHT22;53622;0.000;0.000;2022-12-16T06:24:31;20.00;50.20
66708;DHT22;53622;0.000;0.000;2022-12-16T06:27:18;20.00;50.00
66708;DHT22;53622;0.000;0.000;2022-12-16T06:30:06;20.00;50.00
66708;DHT22;53622;0.000;0.000;2022-12-16T06:32:55;20.00;50.00
66708;DHT22;53622;0.000;0.000;2022-12-16T06:35:41;20.00;49.90
66708;DHT22;53622;0.000;0.000;2022-12-16T06:38:28;19.90;49.90
66708;DHT22;53622;0.000;0.000;2022-12-16T06:41:14;19.90;50.00
66708;DHT22;53622;0.000;0.000;2022-12-16T06:44:09;19.90;50.00
66708;DHT22;53622;0.000;0.000;2022-12-16T06:46:56;19.90;50.30
66708;DHT22;53622;0.000;0.000;2022-12-16T06:49:44;19.90;50.90
66708;DHT22;53622;0.000;0.000;2022-12-16T06:52:31;19.90;50.40
66708;DHT22;53622;0.000;0.000;2022-12-16T06:55:17;19.90;50.50
66708;DHT22;53622;0.000;0.000;2022-12-16T06:58:04;19.90;50.50
66708;DHT22;53622;0.000;0.000;2022-12-16T07:00:51;19.90;50.80
66708;DHT22;53622;0.000;0.000;2022-12-16T07:03:38;19.90;50.50
66708;DHT22;53622;0.000;0.000;2022-12-16T07:06:26;19.90;50.60
66708;DHT22;53622;0.000;0.000;2022-12-16T07:09:13;19.90;50.60
66708;DHT22;53622;0.000;0.000;2022-12-16T07:11:59;19.90;50.40
66708;DHT22;53622;0.000;0.000;2022-12-16T07:14:46;19.90;50.30
66708;DHT22;53622;0.000;0.000;2022-12-16T07:17:38;19.90;50.20
66708;DHT22;53622;0.000;0.000;2022-12-16T07:20:25;19.90;50.10
66708;DHT22;53622;0.000;0.000;2022-12-16T07:23:12;19.80;50.00
66708;DHT22;53622;0.000;0.000;2022-12-16T07:25:59;19.90;50.00
66708;DHT22;53622;0.000;0.000;2022-12-16T07:28:46;19.80;50.00
66708;DHT22;53622;0.000;0.000;2022-12-16T07:31:33;19.80;50.10
66708;DHT22;53622;0.000;0.000;2022-12-16T07:34:19;19.80;50.00
66708;DHT22;53622;0.000;0.000;2022-12-16T07:37:11;19.80;49.70
66708;DHT22;53622;0.000;0.000;2022-12-16T07:39:59;19.70;50.00
66708;DHT22;53622;0.000;0.000;2022-12-16T07:42:46;19.70;48.90
66708;DHT22;53622;0.000;0.000;2022-12-16T07:45:32;19.70;50.20
66708;DHT22;53622;0.000;0.000;2022-12-16T07:48:31;19.70;50.40
66708;DHT22;53622;0.000;0.000;2022-12-16T07:51:17;19.70;50.50
66708;DHT22;53622;0.000;0.000;2022-12-16T07:54:04;19.70;50.70
66708;DHT22;53622;0.000;0.000;2022-12-16T07:56:52;19.70;50.30
66708;DHT22;53622;0.000;0.000;2022-12-16T07:59:39;19.70;50.80
66708;DHT22;53622;0.000;0.000;2022-12-16T08:02:26;19.70;50.70
66708;DHT22;53622;0.000;0.000;2022-12-16T08:05:13;19.70;51.00
66708;DHT22;53622;0.000;0.000;2022-12-16T08:08:00;19.80;51.00
66708;DHT22;53622;0.000;0.000;2022-12-16T08:10:47;19.80;50.90
66708;DHT22;53622;0.000;0.000;2022-12-16T08:13:35;19.80;51.00
66708;DHT22;53622;0.000;0.000;2022-12-16T08:16:22;19.90;51.00
66708;DHT22;53622;0.000;0.000;2022-12-16T08:19:08;20.00;51.10
66708;DHT22;53622;0.000;0.000;2022-12-16T08:21:55;20.00;51.10
66708;DHT22;53622;0.000;0.000;2022-12-16T08:24:42;20.10;51.20
66708;DHT22;53622;0.000;0.000;2022-12-16T08:27:28;20.10;51.30
66708;DHT22;53622;0.000;0.000;2022-12-16T08:30:17;20.20;51.30
66708;DHT22;53622;0.000;0.000;2022-12-16T08:33:04;20.20;51.20
66708;DHT22;53622;0.000;0.000;2022-12-16T08:35:50;20.20;51.20
66708;DHT22;53622;0.000;0.000;2022-12-16T08:38:38;20.30;51.20
66708;DHT22;53622;0.000;0.000;2022-12-16T08:41:24;20.30;51.00
66708;DHT22;53622;0.000;0.000;2022-12-16T08:44:11;20.40;51.00
66708;DHT22;53622;0.000;0.000;2022-12-16T08:47:00;20.40;50.90
66708;DHT22;53622;0.000;0.000;2022-12-16T08:49:48;20.50;50.80
66708;DHT22;53622;0.000;0.000;2022-12-16T08:52:35;20.50;50.80
66708;DHT22;53622;0.000;0.000;2022-12-16T08:55:21;20.60;50.70
66708;DHT22;53622;0.000;0.000;2022-12-16T08:58:04;20.60;50.60
66708;DHT22;53622;0.000;0.000;2022-12-16T09:00:51;20.70;50.70
66708;DHT22;53622;0.000;0.000;2022-12-16T09:03:39;20.70;50.60
66708;DHT22;53622;0.000;0.000;2022-12-16T09:06:26;20.70;50.40
66708;DHT22;53622;0.000;0.000;2022-12-16T09:09:13;20.80;50.40
66708;DHT22;53622;0.000;0.000;2022-12-16T09:12:00;20.80;50.30
66708;DHT22;53622;0.000;0.000;2022-12-16T09:14:47;20.80;50.20
66708;DHT22;53622;0.000;0.000;2022-12-16T09:17:33;20.90;50.10
66708;DHT22;53622;0.000;0.000;2022-12-16T09:20:22;20.90;50.10
66708;DHT22;53622;0.000;0.000;2022-12-16T09:23:08;20.90;50.10
66708;DHT22;53622;0.000;0.000;2022-12-16T09:25:57;20.90;50.10
66708;DHT22;53622;0.000;0.000;2022-12-16T09:28:44;20.90;49.90
66708;DHT22;53622;0.000;0.000;2022-12-16T09:31:31;20.90;49.80
66708;DHT22;53622;0.000;0.000;2022-12-16T09:34:17;20.90;50.00
66708;DHT22;53622;0.000;0.000;2022-12-16T09:37:06;20.90;49.40
66708;DHT22;53622;0.000;0.000;2022-12-16T09:39:53;20.90;49.50
66708;DHT22;53622;0.000;0.000;2022-12-16T09:42:47;20.90;49.30
66708;DHT22;53622;0.000;0.000;2022-12-16T09:45:42;20.90;49.20
66708;DHT22;53622;0.000;0.000;2022-12-16T09:48:37;20.90;49.20
66708;DHT22;53622;0.000;0.000;2022-12-16T09:51:27;20.90;49.20
66708;DHT22;53622;0.000;0.000;2022-12-16T09:54:17;20.90;49.20
66708;DHT22;53622;0.000;0.000;2022-12-16T09:57:06;21.00;49.30
66708;DHT22;53622;0.000;0.000;2022-12-16T09:59:56;21.00;49.30
66708;DHT22;53622;0.000;0.000;2022-12-16T10:02:46;21.00;49.30
66708;DHT22;53622;0.000;0.000;2022-12-16T10:05:46;21.10;49.30
66708;DHT22;53622;0.000;0.000;2022-12-16T10:08:43;21.10;49.20
66708;DHT22;53622;0.000;0.000;2022-12-16T10:11:42;21.10;49.10
66708;DHT22;53622;0.000;0.000;2022-12-16T10:14:38;21.10;49.20
66708;DHT22;53622;0.000;0.000;2022-12-16T10:17:28;21.20;49.30
66708;DHT22;53622;0.000;0.000;2022-12-16T10:20:22;21.20;49.10
66708;DHT22;53622;0.000;0.000;2022-12-16T10:23:15;21.20;49.00
66708;DHT22;53622;0.000;0.000;2022-12-16T10:26:07;21.20;49.00
66708;DHT22;53622;0.000;0.000;2022-12-16T10:29:06;21.20;48.90
66708;DHT22;53622;0.000;0.000;2022-12-16T10:31:58;21.30;48.90
66708;DHT22;53622;0.000;0.000;2022-12-16T10:34:44;21.30;48.80
66708;DHT22;53622;0.000;0.000;2022-12-16T10:37:34;21.30;48.70
66708;DHT22;53622;0.000;0.000;2022-12-16T10:40:25;21.30;48.70
66708;DHT22;53622;0.000;0.000;2022-12-16T10:43:16;21.30;48.60
66708;DHT22;53622;0.000;0.000;2022-12-16T10:46:11;21.30;48.20
66708;DHT22;53622;0.000;0.000;2022-12-16T10:48:59;21.30;48.50
66708;DHT22;53622;0.000;0.000;2022-12-16T10:51:46;21.30;48.50
66708;DHT22;53622;0.000;0.000;2022-12-16T10:54:40;21.30;48.50
66708;DHT22;53622;0.000;0.000;2022-12-16T10:57:35;21.40;48.50
66708;DHT22;53622;0.000;0.000;2022-12-16T11:00:39;21.40;48.50
66708;DHT22;53622;0.000;0.000;2022-12-16T11:03:28;21.40;48.40
66708;DHT22;53622;0.000;0.000;2022-12-16T11:06:20;21.40;48.40
66708;DHT22;53622;0.000;0.000;2022-12-16T11:09:21;21.40;48.50
66708;DHT22;53622;0.000;0.000;2022-12-16T11:12:20;21.50;48.50
66708;DHT22;53622;0.000;0.000;2022-12-16T11:15:33;21.50;48.50
66708;DHT22;53622;0.000;0.000;2022-12-16T11:18:22;21.50;48.50
66708;DHT22;53622;0.000;0.000;2022-12-16T11:21:15;21.50;48.60
66708;DHT22;53622;0.000;0.000;2022-12-16T11:24:13;21.50;48.60
66708;DHT22;53622;0.000;0.000;2022-12-16T11:27:02;21.50;49.60
66708;DHT22;53622;0.000;0.000;2022-12-16T11:29:51;21.50;49.50
66708;DHT22;53622;0.000;0.000;2022-12-16T11:32:42;21.50;49.20
66708;DHT22;53622;0.000;0.000;2022-12-16T11:35:32;21.40;49.50
66708;DHT22;53622;0.000;0.000;2022-12-16T11:38:28;21.30;61.40
66708;DHT22;53622;0.000;0.000;2022-12-16T11:41:25;21.40;87.00
66708;DHT22;53622;0.000;0.000;2022-12-16T11:44:17;21.10;88.30
66708;DHT22;53622;0.000;0.000;2022-12-16T11:47:10;21.30;90.10
66708;DHT22;53622;0.000;0.000;2022-12-16T11:49:59;21.40;56.90
66708;DHT22;53622;0.000;0.000;2022-12-16T11:52:52;21.00;88.90
66708;DHT22;53622;0.000;0.000;2022-12-16T11:55:46;21.10;49.30
66708;DHT22;53622;0.000;0.000;2022-12-16T11:58:45;21.10;91.10
66708;DHT22;53622;0.000;0.000;2022-12-16T12:01:36;21.10;66.00
66708;DHT22;53622;0.000;0.000;2022-12-16T12:04:25;21.10;86.20
66708;DHT22;53622;0.000;0.000;2022-12-16T12:07:24;21.10;87.20
66708;DHT22;53622;0.000;0.000;2022-12-16T12:10:30;21.00;88.40
66708;DHT22;53622;0.000;0.000;2022-12-16T12:13:38;21.10;48.80
66708;DHT22;53622;0.000;0.000;2022-12-16T12:16:33;21.00;84.60
66708;DHT22;53622;0.000;0.000;2022-12-16T12:19:28;21.10;49.30
66708;DHT22;53622;0.000;0.000;2022-12-16T12:22:29;21.10;49.20
66708;DHT22;53622;0.000;0.000;2022-12-16T12:25:23;21.10;49.20
66708;DHT22;53622;0.000;0.000;2022-12-16T12:28:30;21.10;49.10
66708;DHT22;53622;0.000;0.000;2022-12-16T12:31:28;21.10;49.10
66708;DHT22;53622;0.000;0.000;2022-12-16T12:34:22;21.10;49.20
66708;DHT22;53622;0.000;0.000;2022-12-16T12:37:19;21.10;48.90
66708;DHT22;53622;0.000;0.000;2022-12-16T12:40:19;21.10;48.80
66708;DHT22;53622;0.000;0.000;2022-12-16T12:43:14;21.20;48.80
66708;DHT22;53622;0.000;0.000;2022-12-16T12:46:18;21.20;48.80
66708;DHT22;53622;0.000;0.000;2022-12-16T12:49:15;21.20;48.80
66708;DHT22;53622;0.000;0.000;2022-12-16T12:52:14;21.20;81.80
66708;DHT22;53622;0.000;0.000;2022-12-16T12:55:08;21.20;48.80
66708;DHT22;53622;0.000;0.000;2022-12-16T12:58:05;21.20;48.70
66708;DHT22;53622;0.000;0.000;2022-12-16T13:00:54;21.20;48.70
66708;DHT22;53622;0.000;0.000;2022-12-16T13:03:47;21.20;48.70
66708;DHT22;53622;0.000;0.000;2022-12-16T13:06:44;21.20;48.70
66708;DHT22;53622;0.000;0.000;2022-12-16T13:09:33;21.10;83.70
66708;DHT22;53622;0.000;0.000;2022-12-16T13:12:22;21.20;48.60
66708;DHT22;53622;0.000;0.000;2022-12-16T13:15:15;21.20;48.50
66708;DHT22;53622;0.000;0.000;2022-12-16T13:18:30;21.20;48.50
66708;DHT22;53622;0.000;0.000;2022-12-16T13:21:43;21.20;48.40
66708;DHT22;53622;0.000;0.000;2022-12-16T13:24:43;21.10;48.30
66708;DHT22;53622;0.000;0.000;2022-12-16T13:27:52;21.10;48.30
66708;DHT22;53622;0.000;0.000;2022-12-16T13:30:40;21.00;83.60
66708;DHT22;53622;0.000;0.000;2022-12-16T13:33:50;21.10;48.30
66708;DHT22;53622;0.000;0.000;2022-12-16T13:36:37;21.00;47.30
66708;DHT22;53622;0.000;0.000;2022-12-16T13:39:31;21.00;80.70
66708;DHT22;53622;0.000;0.000;2022-12-16T13:42:49;21.00;48.50
66708;DHT22;53622;0.000;0.000;2022-12-16T13:45:39;21.00;48.20
66708;DHT22;53622;0.000;0.000;2022-12-16T13:48:36;21.00;48.00
66708;DHT22;53622;0.000;0.000;2022-12-16T13:54:59;20.90;47.80
66708;DHT22;53622;0.000;0.000;2022-12-16T13:58:01;20.90;81.90
66708;DHT22;53622;0.000;0.000;2022-12-16T14:00:57;20.90;47.80
66708;DHT22;53622;0.000;0.000;2022-12-16T14:03:49;20.80;81.30
66708;DHT22;53622;0.000;0.000;2022-12-16T14:06:41;20.90;47.80
66708;DHT22;53622;0.000;0.000;2022-12-16T14:09:35;20.90;47.70
66708;DHT22;53622;0.000;0.000;2022-12-16T14:12:49;20.90;47.70
66708;DHT22;53622;0.000;0.000;2022-12-16T14:15:46;20.80;47.80
66708;DHT22;53622;0.000;0.000;2022-12-16T14:18:42;20.80;81.30
66708;DHT22;53622;0.000;0.000;2022-12-16T14:21:35;20.80;47.60
66708;DHT22;53622;0.000;0.000;2022-12-16T14:24:25;20.70;81.80
66708;DHT22;53622;0.000;0.000;2022-12-16T14:27:14;20.80;47.70
66708;DHT22;53622;0.000;0.000;2022-12-16T14:30:15;20.60;82.80
66708;DHT22;53622;0.000;0.000;2022-12-16T14:33:15;20.80;47.70
66708;DHT22;53622;0.000;0.000;2022-12-16T14:36:15;20.80;83.20
66708;DHT22;53622;0.000;0.000;2022-12-16T14:39:02;20.70;48.00
66708;DHT22;53622;0.000;0.000;2022-12-16T14:41:50;20.70;47.80
66708;DHT22;53622;0.000;0.000;2022-12-16T14:44:37;20.70;86.10
66708;DHT22;53622;0.000;0.000;2022-12-16T14:47:40;20.60;84.90
66708;DHT22;53622;0.000;0.000;2022-12-16T14:50:28;20.60;81.00
66708;DHT22;53622;0.000;0.000;2022-12-16T14:53:23;20.60;85.60
66708;DHT22;53622;0.000;0.000;2022-12-16T14:56:16;20.50;46.90
66708;DHT22;53622;0.000;0.000;2022-12-16T14:59:13;20.50;82.70
66708;DHT22;53622;0.000;0.000;2022-12-16T15:02:11;20.50;82.70
66708;DHT22;53622;0.000;0.000;2022-12-16T15:05:01;20.50;83.00
66708;DHT22;53622;0.000;0.000;2022-12-16T15:07:48;20.50;82.90
66708;DHT22;53622;0.000;0.000;2022-12-16T15:10:36;20.40;81.50
66708;DHT22;53622;0.000;0.000;2022-12-16T15:13:23;20.30;84.50
66708;DHT22;53622;0.000;0.000;2022-12-16T15:16:13;20.40;85.90
66708;DHT22;53622;0.000;0.000;2022-12-16T15:19:01;20.40;85.20
66708;DHT22;53622;0.000;0.000;2022-12-16T15:21:46;20.30;83.00
66708;DHT22;53622;0.000;0.000;2022-12-16T15:24:36;20.40;73.90
66708;DHT22;53622;0.000;0.000;2022-12-16T15:27:34;20.30;84.70
66708;DHT22;53622;0.000;0.000;2022-12-16T15:30:36;20.40;85.50
66708;DHT22;53622;0.000;0.000;2022-12-16T15:33:26;20.30;46.80
66708;DHT22;53622;0.000;0.000;2022-12-16T15:36:22;20.30;85.50
66708;DHT22;53622;0.000;0.000;2022-12-16T15:39:19;20.10;84.00
66708;DHT22;53622;0.000;0.000;2022-12-16T15:42:18;20.20;84.80
66708;DHT22;53622;0.000;0.000;2022-12-16T15:45:15;20.30;85.20
66708;DHT22;53622;0.000;0.000;2022-12-16T15:48:11;20.20;87.10
66708;DHT22;53622;0.000;0.000;2022-12-16T15:50:58;20.20;84.90
66708;DHT22;53622;0.000;0.000;2022-12-16T15:53:44;20.10;71.20
66708;DHT22;53622;0.000;0.000;2022-12-16T15:56:44;20.20;87.20
66708;DHT22;53622;0.000;0.000;2022-12-16T15:59:32;20.10;47.70
66708;DHT22;53622;0.000;0.000;2022-12-16T16:02:26;20.10;47.70
66708;DHT22;53622;0.000;0.000;2022-12-16T16:05:17;20.10;85.40
66708;DHT22;53622;0.000;0.000;2022-12-16T16:08:05;20.00;90.10
66708;DHT22;53622;0.000;0.000;2022-12-16T16:10:52;19.90;85.80
66708;DHT22;53622;0.000;0.000;2022-12-16T16:13:40;20.10;47.70
66708;DHT22;53622;0.000;0.000;2022-12-16T16:16:34;20.10;47.80
66708;DHT22;53622;0.000;0.000;2022-12-16T16:19:22;20.10;47.80
66708;DHT22;53622;0.000;0.000;2022-12-16T16:22:11;20.00;47.70
66708;DHT22;53622;0.000;0.000;2022-12-16T16:24:58;20.10;48.00
66708;DHT22;53622;0.000;0.000;2022-12-16T16:27:45;20.10;48.10
66708;DHT22;53622;0.000;0.000;2022-12-16T16:30:33;20.00;48.00
66708;DHT22;53622;0.000;0.000;2022-12-16T16:33:20;20.00;47.80
66708;DHT22;53622;0.000;0.000;2022-12-16T16:36:11;20.00;47.90
66708;DHT22;53622;0.000;0.000;2022-12-16T16:38:59;20.00;47.90
66708;DHT22;53622;0.000;0.000;2022-12-16T16:41:46;20.00;47.70
66708;DHT22;53622;0.000;0.000;2022-12-16T16:44:33;20.00;47.80
66708;DHT22;53622;0.000;0.000;2022-12-16T16:47:26;20.00;47.80
66708;DHT22;53622;0.000;0.000;2022-12-16T16:50:13;19.90;47.80
66708;DHT22;53622;0.000;0.000;2022-12-16T16:53:00;19.90;47.90
66708;DHT22;53622;0.000;0.000;2022-12-16T16:55:47;19.90;48.00
66708;DHT22;53622;0.000;0.000;2022-12-16T16:58:46;19.90;83.80
66708;DHT22;53622;0.000;0.000;2022-12-16T17:01:33;19.80;84.00
66708;DHT22;53622;0.000;0.000;2022-12-16T17:04:21;19.80;83.20
66708;DHT22;53622;0.000;0.000;2022-12-16T17:07:08;19.80;83.40
66708;DHT22;53622;0.000;0.000;2022-12-16T17:09:55;19.70;82.50
66708;DHT22;53622;0.000;0.000;2022-12-16T17:12:42;19.80;83.50
66708;DHT22;53622;0.000;0.000;2022-12-16T17:15:38;19.80;84.30
66708;DHT22;53622;0.000;0.000;2022-12-16T17:18:24;19.80;84.30
66708;DHT22;53622;0.000;0.000;2022-12-16T17:21:20;19.70;48.50
66708;DHT22;53622;0.000;0.000;2022-12-16T17:24:07;19.70;48.50
66708;DHT22;53622;0.000;0.000;2022-12-16T17:26:53;19.70;48.40
66708;DHT22;53622;0.000;0.000;2022-12-16T17:29:40;19.80;48.40
66708;DHT22;53622;0.000;0.000;2022-12-16T17:32:27;19.70;48.40
66708;DHT22;53622;0.000;0.000;2022-12-16T17:35:14;19.70;48.30
66708;DHT22;53622;0.000;0.000;2022-12-16T17:38:02;19.70;48.40
66708;DHT22;53622;0.000;0.000;2022-12-16T17:40:50;19.70;48.40
66708;DHT22;53622;0.000;0.000;2022-12-16T17:43:37;19.70;48.40
66708;DHT22;53622;0.000;0.000;2022-12-16T17:46:24;19.70;48.30
66708;DHT22;53622;0.000;0.000;2022-12-16T17:49:11;19.70;48.40
66708;DHT22;53622;0.000;0.000;2022-12-16T17:51:57;19.70;48.30